Time;durP1;ratioP1;P1;durP2;ratioP2;P2;SDS_P1;SDS_P2;PMS_P1;PMS_P2;Temp;Humidity;BMP_temperature;BMP_pressure;BME280_temperature;BME280_humidity;BME280_pressure;Samples;Min_cycle;Max_cycle;Signal;HPM_P1;HPM_P2
2024/03/17 00:00:20;;;;;;;5.93;4.53;;;8.50;99.90;;;;;;5049008;28;20799;-84
2024/03/17 00:02:46;;;;;;;4.78;4.32;;;8.90;99.90;;;;;;5050668;28;20182;-84
2024/03/17 00:05:12;;;;;;;9.80;4.80;;;8.50;99.90;;;;;;5056131;28;20272;-86
2024/03/17 00:07:39;;;;;;;5.15;4.53;;;8.50;99.90;;;;;;5053883;28;20432;-85
2024/03/17 00:10:07;;;;;;;6.35;4.47;;;8.10;99.90;;;;;;5050623;28;20212;-85
2024/03/17 00:12:33;;;;;;;6.38;4.85;;;8.20;99.90;;;;;;5050996;28;20326;-85
2024/03/17 00:14:58;;;;;;;6.37;4.73;;;8.30;99.90;;;;;;5049935;28;20863;-85
2024/03/17 00:17:24;;;;;;;5.27;4.40;;;8.00;99.90;;;;;;5060861;28;20441;-84
2024/03/17 00:19:49;;;;;;;4.90;4.23;;;8.60;99.90;;;;;;5048101;28;20193;-84
2024/03/17 00:22:15;;;;;;;5.50;4.50;;;8.50;99.90;;;;;;5053591;28;20182;-85
2024/03/17 00:24:42;;;;;;;5.43;4.30;;;8.00;99.90;;;;;;5053434;28;20662;-84
2024/03/17 00:27:08;;;;;;;6.10;4.90;;;8.10;99.90;;;;;;5074454;28;20522;-84
2024/03/17 00:29:33;;;;;;;5.27;4.77;;;8.00;99.90;;;;;;5056625;28;20270;-84
2024/03/17 00:31:59;;;;;;;5.13;4.63;;;8.20;99.90;;;;;;5053257;28;20747;-84
2024/03/17 00:34:24;;;;;;;5.10;4.60;;;8.40;99.90;;;;;;5054817;28;20208;-83
2024/03/17 00:36:51;;;;;;;5.53;5.00;;;7.90;99.90;;;;;;5058065;28;20236;-86
2024/03/17 00:39:17;;;;;;;5.20;4.70;;;8.10;99.90;;;;;;5057595;28;20202;-84
2024/03/17 00:41:43;;;;;;;7.72;5.80;;;7.40;99.90;;;;;;5055259;28;20185;-84
2024/03/17 00:44:09;;;;;;;7.55;5.53;;;8.10;99.90;;;;;;5054460;28;20556;-85
2024/03/17 00:46:35;;;;;;;11.70;8.23;;;8.30;99.90;;;;;;5052349;28;20247;-84
2024/03/17 00:49:00;;;;;;;9.07;5.37;;;8.40;99.90;;;;;;5058476;28;20196;-84
2024/03/17 00:51:26;;;;;;;5.13;4.40;;;8.10;99.90;;;;;;5061255;28;20190;-85
2024/03/17 00:53:52;;;;;;;5.37;4.53;;;8.10;99.90;;;;;;5055776;28;20689;-84
2024/03/17 00:56:17;;;;;;;4.83;4.40;;;8.10;99.90;;;;;;5057828;28;20459;-85
2024/03/17 00:58:45;;;;;;;7.73;6.13;;;8.20;99.90;;;;;;5051908;28;20181;-85
2024/03/17 01:01:10;;;;;;;6.72;5.35;;;7.90;99.90;;;;;;5056802;28;20204;-86
2024/03/17 01:03:36;;;;;;;5.50;5.00;;;7.90;99.90;;;;;;5057146;28;20694;-85
2024/03/17 01:06:05;;;;;;;5.73;4.93;;;7.40;99.90;;;;;;5056451;28;20206;-85
2024/03/17 01:08:31;;;;;;;6.93;5.15;;;7.70;99.90;;;;;;5055051;28;20186;-84
2024/03/17 01:10:58;;;;;;;6.07;4.75;;;8.30;99.90;;;;;;5058675;28;20220;-86
2024/03/17 01:13:24;;;;;;;6.28;5.03;;;8.20;99.90;;;;;;5055668;28;20213;-85
2024/03/17 01:15:53;;;;;;;6.20;5.07;;;8.10;99.90;;;;;;5052382;28;20204;-84
2024/03/17 01:18:19;;;;;;;7.53;5.82;;;7.20;99.90;;;;;;5056252;28;20436;-84
2024/03/17 01:20:45;;;;;;;6.53;5.53;;;7.20;99.90;;;;;;5055225;28;20839;-84
2024/03/17 01:23:11;;;;;;;5.80;5.25;;;7.60;99.90;;;;;;5052677;28;20534;-84
2024/03/17 01:25:37;;;;;;;6.73;5.03;;;7.70;99.90;;;;;;5054925;28;20297;-83
2024/03/17 01:28:08;;;;;;;7.20;5.00;;;7.80;99.90;;;;;;5058297;28;20205;-84
2024/03/17 01:30:34;;;;;;;6.00;4.47;;;;;;;;;;5053425;28;20224;-83
2024/03/17 01:33:00;;;;;;;6.20;4.95;;;7.80;99.90;;;;;;5055723;28;20216;-84
2024/03/17 01:35:26;;;;;;;6.20;5.60;;;7.50;99.90;;;;;;5056138;28;20174;-84
2024/03/17 01:37:51;;;;;;;7.38;4.28;;;7.70;99.90;;;;;;5055046;28;20178;-84
2024/03/17 01:40:17;;;;;;;5.70;4.80;;;7.90;99.90;;;;;;5050505;28;20540;-83
2024/03/17 01:42:43;;;;;;;4.70;3.60;;;7.50;99.90;;;;;;5053282;28;20181;-83
2024/03/17 01:45:28;;;;;;;5.93;5.20;;;7.50;99.90;;;;;;5053479;28;20182;-85
2024/03/17 01:47:57;;;;;;;6.18;4.75;;;7.60;99.90;;;;;;5050973;28;20193;-83
2024/03/17 01:50:31;;;;;;;5.05;3.90;;;8.00;99.90;;;;;;5055165;28;20265;-83
2024/03/17 01:52:59;;;;;;;4.55;4.15;;;7.40;99.90;;;;;;5055335;28;20285;-83
2024/03/17 01:55:27;;;;;;;6.32;4.78;;;7.60;99.90;;;;;;5054849;28;20177;-84
2024/03/17 01:57:53;;;;;;;7.90;4.97;;;7.90;99.90;;;;;;5057147;28;20681;-84
2024/03/17 02:00:19;;;;;;;6.80;4.13;;;7.20;99.90;;;;;;5052330;28;20185;-84
2024/03/17 02:02:44;;;;;;;5.73;4.80;;;7.70;99.90;;;;;;5054923;28;20182;-84
2024/03/17 02:05:10;;;;;;;4.97;4.23;;;7.40;99.90;;;;;;5054188;28;20474;-84
2024/03/17 02:07:36;;;;;;;6.30;4.37;;;8.20;99.90;;;;;;5053493;28;21725;-84
2024/03/17 02:10:05;;;;;;;5.27;4.53;;;7.90;99.90;;;;;;5054469;28;20279;-84
2024/03/17 02:12:31;;;;;;;4.40;4.00;;;7.80;99.90;;;;;;5051179;28;20451;-84
2024/03/17 02:14:58;;;;;;;5.03;4.53;;;7.80;99.90;;;;;;5056158;28;20208;-84
2024/03/17 02:17:25;;;;;;;8.43;4.70;;;7.20;99.90;;;;;;5053452;28;20197;-83
2024/03/17 02:19:52;;;;;;;4.78;4.20;;;7.90;99.90;;;;;;5057126;28;20215;-84
2024/03/17 02:22:17;;;;;;;5.43;4.90;;;7.30;99.90;;;;;;5068815;28;20177;-83
2024/03/17 02:24:44;;;;;;;5.80;4.50;;;7.90;99.90;;;;;;5074282;28;20358;-84
2024/03/17 02:27:09;;;;;;;5.22;4.60;;;7.50;99.90;;;;;;5072460;28;20202;-83
2024/03/17 02:29:39;;;;;;;5.20;4.30;;;8.00;99.90;;;;;;5056637;28;20201;-84
2024/03/17 02:32:07;;;;;;;4.95;4.28;;;7.80;99.90;;;;;;5052663;28;20654;-85
2024/03/17 02:34:36;;;;;;;5.28;4.35;;;8.10;99.90;;;;;;5054010;28;20689;-84
2024/03/17 02:37:05;;;;;;;5.93;4.53;;;7.70;99.90;;;;;;5053652;28;20197;-83
2024/03/17 02:39:34;;;;;;;5.80;4.60;;;8.00;99.90;;;;;;5051464;28;20216;-84
2024/03/17 02:42:08;;;;;;;6.05;5.05;;;7.80;99.90;;;;;;5051771;28;20173;-84
2024/03/17 02:44:37;;;;;;;5.20;4.70;;;8.10;99.90;;;;;;5053595;28;20182;-85
2024/03/17 02:47:09;;;;;;;5.60;5.10;;;8.00;99.90;;;;;;5055201;28;20277;-84
2024/03/17 02:49:49;;;;;;;7.80;5.03;;;8.20;99.90;;;;;;5051783;28;20192;-84
2024/03/17 02:52:15;;;;;;;5.03;4.32;;;8.20;99.90;;;;;;5052832;28;20181;-84
2024/03/17 02:54:41;;;;;;;5.17;3.60;;;8.20;99.90;;;;;;5054394;28;20271;-84
2024/03/17 02:57:06;;;;;;;4.93;4.18;;;8.00;99.90;;;;;;5053340;28;20205;-84
2024/03/17 02:59:32;;;;;;;5.70;4.73;;;8.40;99.90;;;;;;5051658;28;20177;-85
2024/03/17 03:02:00;;;;;;;4.68;4.22;;;7.40;99.90;;;;;;5053843;28;20272;-85
2024/03/17 03:04:26;;;;;;;4.75;4.30;;;8.00;99.90;;;;;;5056904;28;20264;-85
2024/03/17 03:06:52;;;;;;;5.72;5.07;;;7.50;99.90;;;;;;5054806;28;20206;-85
2024/03/17 03:09:25;;;;;;;5.97;4.33;;;8.30;99.90;;;;;;5059467;28;20687;-85
2024/03/17 03:11:51;;;;;;;7.32;5.45;;;7.80;99.90;;;;;;5058150;28;20497;-85
2024/03/17 03:14:17;;;;;;;7.28;5.40;;;8.00;99.90;;;;;;5056595;28;20205;-85
2024/03/17 03:16:43;;;;;;;6.37;4.70;;;7.80;99.90;;;;;;5056741;28;20202;-84
2024/03/17 03:19:09;;;;;;;9.38;4.93;;;7.70;99.90;;;;;;5052644;28;20174;-85
2024/03/17 03:21:34;;;;;;;4.90;4.40;;;8.00;99.90;;;;;;5051182;28;20177;-85
2024/03/17 03:24:00;;;;;;;8.90;5.43;;;7.30;99.90;;;;;;5053575;28;20411;-84
2024/03/17 03:26:25;;;;;;;7.33;4.87;;;7.20;99.90;;;;;;5051531;28;20215;-85
2024/03/17 03:28:51;;;;;;;5.90;5.23;;;7.90;99.90;;;;;;5055036;28;20197;-84
2024/03/17 03:31:17;;;;;;;6.90;5.40;;;7.40;99.90;;;;;;5053725;28;20707;-84
2024/03/17 03:33:43;;;;;;;8.35;4.45;;;7.50;99.90;;;;;;5051849;28;20205;-86
2024/03/17 03:36:13;;;;;;;6.22;5.00;;;7.40;99.90;;;;;;5050297;28;20206;-84
2024/03/17 03:38:39;;;;;;;6.47;5.80;;;7.60;99.90;;;;;;5053162;28;20182;-85
2024/03/17 03:41:09;;;;;;;7.20;5.20;;;7.90;99.90;;;;;;5053407;28;20189;-83
2024/03/17 03:43:35;;;;;;;5.30;4.80;;;7.00;99.90;;;;;;5050715;28;20422;-85
2024/03/17 03:46:02;;;;;;;5.70;4.87;;;7.00;99.90;;;;;;5051022;28;20217;-85
2024/03/17 03:48:27;;;;;;;6.32;5.30;;;7.90;99.90;;;;;;5051343;28;20196;-86
2024/03/17 03:50:54;;;;;;;6.73;5.23;;;7.40;99.90;;;;;;5050847;28;20189;-84
2024/03/17 03:53:20;;;;;;;6.70;5.45;;;7.30;99.90;;;;;;5051412;28;20690;-85
2024/03/17 03:55:45;;;;;;;6.43;5.23;;;6.90;99.90;;;;;;5051325;28;20239;-85
2024/03/17 03:58:12;;;;;;;5.67;5.17;;;7.50;99.90;;;;;;5054164;28;20440;-84
2024/03/17 04:00:39;;;;;;;7.60;5.15;;;7.50;99.90;;;;;;5048764;28;20170;-85
2024/03/17 04:03:04;;;;;;;6.25;5.57;;;7.90;99.90;;;;;;5050625;28;20188;-84
2024/03/17 04:05:30;;;;;;;6.47;5.37;;;7.30;99.90;;;;;;5050848;28;20181;-85
2024/03/17 04:07:56;;;;;;;5.77;5.13;;;7.40;99.90;;;;;;5051830;28;20170;-85
2024/03/17 04:10:23;;;;;;;7.03;5.57;;;7.60;99.90;;;;;;5050706;28;20177;-85
2024/03/17 04:12:49;;;;;;;9.68;6.28;;;7.20;99.90;;;;;;5051206;28;20968;-83
2024/03/17 04:15:15;;;;;;;7.13;5.77;;;7.40;99.90;;;;;;5050321;28;20217;-86
2024/03/17 04:17:42;;;;;;;6.80;5.60;;;7.30;99.90;;;;;;5057760;28;20189;-85
2024/03/17 04:20:09;;;;;;;7.43;5.35;;;7.50;99.90;;;;;;5052491;28;20186;-83
2024/03/17 04:22:35;;;;;;;6.15;5.45;;;7.50;99.90;;;;;;5052203;28;20194;-83
2024/03/17 04:25:00;;;;;;;8.60;6.27;;;7.30;99.90;;;;;;5047079;28;20296;-84
2024/03/17 04:27:27;;;;;;;6.43;5.73;;;7.60;99.90;;;;;;5052526;28;20442;-84
2024/03/17 04:29:54;;;;;;;9.30;6.38;;;7.40;99.90;;;;;;5053144;28;20537;-84
2024/03/17 04:32:20;;;;;;;8.50;6.05;;;7.80;99.90;;;;;;5051515;28;20554;-84
2024/03/17 04:34:46;;;;;;;7.15;6.13;;;7.40;99.90;;;;;;5056608;28;20233;-85
2024/03/17 04:37:12;;;;;;;8.10;6.80;;;7.40;99.90;;;;;;5054327;28;20662;-83
2024/03/17 04:39:45;;;;;;;6.87;6.07;;;7.20;99.90;;;;;;5052242;28;20510;-84
2024/03/17 04:42:15;;;;;;;9.95;7.28;;;7.20;99.90;;;;;;5053372;28;20685;-83
2024/03/17 04:44:41;;;;;;;7.63;5.75;;;7.10;99.90;;;;;;5071525;28;20197;-84
2024/03/17 04:47:07;;;;;;;5.70;5.20;;;7.30;99.90;;;;;;5053458;28;20210;-83
2024/03/17 04:49:43;;;;;;;8.00;6.60;;;7.40;99.90;;;;;;5052457;28;20178;-84
2024/03/17 04:52:10;;;;;;;8.23;5.90;;;7.10;99.90;;;;;;5050915;28;20177;-84
2024/03/17 04:54:35;;;;;;;9.63;6.82;;;6.50;99.90;;;;;;5051502;28;20291;-83
2024/03/17 04:57:01;;;;;;;7.47;5.87;;;7.10;99.90;;;;;;5050059;28;20206;-83
2024/03/17 04:59:27;;;;;;;6.30;5.70;;;6.80;99.90;;;;;;5050779;28;20626;-85
2024/03/17 05:01:53;;;;;;;8.65;6.90;;;7.50;99.90;;;;;;5059605;28;20414;-84
2024/03/17 05:04:19;;;;;;;8.63;6.70;;;7.20;99.90;;;;;;5062855;28;20257;-84
2024/03/17 05:06:48;;;;;;;9.30;6.63;;;7.40;99.90;;;;;;5059668;28;20716;-84
2024/03/17 05:09:14;;;;;;;7.85;6.35;;;6.80;99.90;;;;;;5058434;28;20453;-83
2024/03/17 05:11:40;;;;;;;8.90;6.97;;;6.40;99.90;;;;;;5059060;28;20189;-85
2024/03/17 05:14:06;;;;;;;6.82;6.05;;;7.10;99.90;;;;;;5056070;28;20229;-83
2024/03/17 05:16:31;;;;;;;10.20;5.60;;;7.00;99.90;;;;;;5061354;28;20705;-83
2024/03/17 05:18:57;;;;;;;8.00;6.30;;;6.90;99.90;;;;;;5057824;28;20829;-83
2024/03/17 05:21:23;;;;;;;8.83;6.20;;;7.00;99.90;;;;;;5057128;28;20205;-84
2024/03/17 05:23:49;;;;;;;8.80;6.07;;;7.00;99.90;;;;;;5054913;28;20190;-85
2024/03/17 05:26:15;;;;;;;8.83;6.00;;;7.40;99.90;;;;;;5057464;28;20686;-84
2024/03/17 05:28:41;;;;;;;6.40;5.70;;;7.10;99.90;;;;;;5056132;28;20190;-84
2024/03/17 05:31:06;;;;;;;6.60;5.93;;;7.00;99.90;;;;;;5056834;28;20212;-84
2024/03/17 05:33:32;;;;;;;7.43;6.60;;;7.20;99.90;;;;;;5039301;28;20233;-83
2024/03/17 05:35:59;;;;;;;7.57;6.20;;;6.90;99.90;;;;;;5057999;28;20314;-83
2024/03/17 05:38:26;;;;;;;7.03;6.32;;;7.30;99.90;;;;;;5059022;28;20193;-84
2024/03/17 05:40:56;;;;;;;7.47;5.63;;;7.10;99.90;;;;;;5058531;28;20234;-84
2024/03/17 05:43:26;;;;;;;8.48;6.90;;;6.60;99.90;;;;;;5060245;28;20256;-84
2024/03/17 05:45:58;;;;;;;13.48;7.00;;;6.90;99.90;;;;;;5056025;28;20209;-84
2024/03/17 05:48:24;;;;;;;7.88;7.03;;;6.80;99.90;;;;;;5066011;28;20177;-83
2024/03/17 05:50:53;;;;;;;11.40;7.43;;;7.30;99.90;;;;;;5056039;28;20335;-84
2024/03/17 05:53:19;;;;;;;8.32;7.43;;;7.30;99.90;;;;;;5060803;28;20458;-84
2024/03/17 05:55:44;;;;;;;12.15;7.38;;;6.90;99.90;;;;;;5053959;28;20205;-83
2024/03/17 05:58:11;;;;;;;7.63;6.83;;;7.00;99.90;;;;;;5055507;28;20182;-84
2024/03/17 06:00:38;;;;;;;9.18;7.53;;;7.30;99.90;;;;;;5053761;28;20280;-84
2024/03/17 06:03:05;;;;;;;8.02;7.15;;;7.50;99.90;;;;;;5059051;28;20185;-85
2024/03/17 06:05:35;;;;;;;10.88;7.70;;;7.30;99.90;;;;;;5055908;28;20532;-85
2024/03/17 06:08:05;;;;;;;10.50;8.18;;;7.10;99.90;;;;;;5036584;28;20196;-89
2024/03/17 06:10:33;;;;;;;8.23;7.35;;;7.10;99.90;;;;;;5059883;28;20226;-89
2024/03/17 06:12:59;;;;;;;8.43;7.60;;;7.10;99.90;;;;;;5085638;28;20188;-88
2024/03/17 06:15:25;;;;;;;9.13;7.60;;;7.40;99.90;;;;;;5074735;28;20222;-90
2024/03/17 06:17:54;;;;;;;8.90;7.23;;;7.20;99.90;;;;;;5078724;28;20411;-89
2024/03/17 06:20:26;;;;;;;8.02;7.20;;;7.40;99.90;;;;;;5053495;28;20411;-89
2024/03/17 06:22:55;;;;;;;9.65;7.65;;;7.20;99.90;;;;;;5048253;28;20217;-88
2024/03/17 06:25:23;;;;;;;10.35;7.55;;;7.30;99.90;;;;;;5066846;28;20197;-87
2024/03/17 06:27:52;;;;;;;11.00;8.40;;;6.80;99.90;;;;;;5053250;28;20200;-87
2024/03/17 06:30:18;;;;;;;9.48;7.60;;;7.60;99.90;;;;;;5050220;28;20231;-87
2024/03/17 06:32:45;;;;;;;10.00;7.70;;;7.30;99.90;;;;;;5050256;28;20235;-88
2024/03/17 06:35:12;;;;;;;11.30;8.38;;;7.70;99.90;;;;;;5051719;28;20212;-88
2024/03/17 06:37:38;;;;;;;10.52;9.02;;;7.30;99.90;;;;;;5051441;28;20209;-87
2024/03/17 06:40:05;;;;;;;9.30;8.30;;;7.40;99.90;;;;;;5055615;28;20181;-88
2024/03/17 06:42:31;;;;;;;9.98;8.63;;;7.40;99.90;;;;;;5040871;28;20197;-89
2024/03/17 06:44:56;;;;;;;9.53;8.43;;;7.90;99.90;;;;;;5056255;28;20205;-88
2024/03/17 06:47:22;;;;;;;13.20;8.90;;;7.00;99.90;;;;;;5055016;28;20206;-88
2024/03/17 06:49:48;;;;;;;11.65;8.00;;;7.90;99.90;;;;;;5072879;28;20176;-88
2024/03/17 06:52:13;;;;;;;12.20;9.00;;;7.30;99.90;;;;;;5069895;28;20190;-89
2024/03/17 06:54:39;;;;;;;10.17;8.40;;;8.30;99.90;;;;;;5029789;28;20682;-89
2024/03/17 06:57:05;;;;;;;13.37;10.27;;;7.70;99.90;;;;;;5051681;28;20688;-90
2024/03/17 06:59:33;;;;;;;10.47;8.90;;;8.20;99.90;;;;;;5030676;28;20512;-91
2024/03/17 07:01:58;;;;;;;10.40;9.02;;;8.50;99.90;;;;;;5050220;28;20187;-90
2024/03/17 07:04:24;;;;;;;11.03;8.63;;;8.70;99.90;;;;;;5052571;28;20183;-90
2024/03/17 07:06:50;;;;;;;10.00;9.07;;;9.60;99.90;;;;;;5047453;28;20255;-90
2024/03/17 07:09:17;;;;;;;11.00;9.90;;;10.10;99.90;;;;;;5050082;28;20219;-90
2024/03/17 07:11:44;;;;;;;11.57;10.13;;;10.10;99.90;;;;;;5050292;28;20830;-90
2024/03/17 07:14:09;;;;;;;10.27;9.27;;;9.80;99.90;;;;;;5049849;28;20217;-88
2024/03/17 07:16:35;;;;;;;10.77;9.63;;;10.30;99.90;;;;;;5050945;28;20207;-90
2024/03/17 07:19:02;;;;;;;10.63;9.50;;;10.60;99.90;;;;;;5049411;28;20637;-89
2024/03/17 07:21:27;;;;;;;13.73;9.40;;;11.20;99.90;;;;;;5051198;28;20270;-89
2024/03/17 07:23:53;;;;;;;10.27;9.27;;;11.70;99.90;;;;;;5048243;28;20686;-88
2024/03/17 07:26:18;;;;;;;10.50;9.60;;;12.10;99.90;;;;;;5047664;28;20214;-89
2024/03/17 07:28:44;;;;;;;10.53;9.47;;;12.20;99.90;;;;;;5052589;28;20185;-89
2024/03/17 07:31:10;;;;;;;11.63;10.43;;;12.80;99.90;;;;;;5051804;28;20182;-88
2024/03/17 07:33:36;;;;;;;10.40;9.33;;;12.80;99.90;;;;;;5067821;28;20539;-89
2024/03/17 07:36:02;;;;;;;10.70;9.70;;;12.70;99.90;;;;;;5053932;28;20205;-90
2024/03/17 07:38:30;;;;;;;12.20;10.50;;;13.40;99.90;;;;;;5051947;28;20201;-89
2024/03/17 07:41:01;;;;;;;8.98;8.07;;;14.50;99.90;;;;;;5048823;28;20178;-89
2024/03/17 07:43:27;;;;;;;10.18;9.07;;;15.80;99.90;;;;;;5047979;28;20189;-90
2024/03/17 07:46:12;;;;;;;11.43;10.32;;;15.70;99.90;;;;;;5047357;28;20197;-90
2024/03/17 07:48:43;;;;;;;10.45;9.30;;;15.60;99.50;;;;;;5051913;28;20225;-89
2024/03/17 07:51:11;;;;;;;9.75;8.85;;;15.90;99.00;;;;;;5047132;28;20182;-91
2024/03/17 07:53:38;;;;;;;13.68;12.25;;;16.50;98.30;;;;;;5055091;28;20213;-90
2024/03/17 07:56:09;;;;;;;11.00;10.00;;;16.30;97.40;;;;;;5048783;28;20208;-89
2024/03/17 07:58:37;;;;;;;10.60;9.57;;;16.70;97.80;;;;;;5049974;28;20201;-90
2024/03/17 08:01:05;;;;;;;10.95;9.95;;;15.60;96.30;;;;;;5046836;28;20791;-89
2024/03/17 08:03:32;;;;;;;10.40;9.05;;;17.60;98.30;;;;;;5048597;28;20186;-88
2024/03/17 08:05:58;;;;;;;11.52;10.35;;;16.50;98.30;;;;;;5048285;28;20205;-89
2024/03/17 08:08:24;;;;;;;11.40;10.25;;;15.10;97.70;;;;;;5046810;28;20182;-88
2024/03/17 08:10:50;;;;;;;11.05;10.05;;;15.00;98.20;;;;;;5051242;28;20189;-89
2024/03/17 08:13:20;;;;;;;10.15;9.15;;;15.10;98.40;;;;;;5046629;28;20257;-88
2024/03/17 08:15:46;;;;;;;10.05;9.15;;;15.20;98.90;;;;;;5048121;28;20254;-88
2024/03/17 08:18:12;;;;;;;9.68;8.85;;;15.30;98.90;;;;;;5051387;28;20594;-88
2024/03/17 08:20:39;;;;;;;10.10;9.10;;;15.10;98.90;;;;;;5048309;28;20662;-89
2024/03/17 08:23:05;;;;;;;10.70;9.70;;;14.90;98.80;;;;;;5047767;28;20228;-88
2024/03/17 08:25:32;;;;;;;10.70;9.70;;;15.00;98.90;;;;;;5048091;28;20189;-88
2024/03/17 08:27:57;;;;;;;11.32;10.32;;;15.10;99.70;;;;;;5042868;28;20184;-89
2024/03/17 08:30:23;;;;;;;11.20;10.00;;;14.90;99.90;;;;;;5045164;28;20280;-88
2024/03/17 08:32:48;;;;;;;10.57;9.57;;;14.10;99.90;;;;;;5045485;28;20193;-89
2024/03/17 08:35:14;;;;;;;11.03;10.03;;;13.80;99.90;;;;;;5048839;28;20213;-88
2024/03/17 08:37:40;;;;;;;10.63;9.60;;;14.00;99.90;;;;;;5049621;28;20181;-89
2024/03/17 08:40:06;;;;;;;11.63;10.53;;;13.70;99.90;;;;;;5056203;28;20185;-90
2024/03/17 08:42:32;;;;;;;9.90;8.90;;;14.10;99.90;;;;;;5054209;28;20785;-91
2024/03/17 08:44:58;;;;;;;11.98;10.85;;;13.90;99.90;;;;;;5055720;28;20276;-90
2024/03/17 08:47:23;;;;;;;11.60;10.60;;;13.90;99.90;;;;;;5053152;28;20753;-90
2024/03/17 08:49:52;;;;;;;10.83;9.83;;;14.20;99.90;;;;;;5053063;28;20568;-91
2024/03/17 08:52:17;;;;;;;10.20;9.20;;;14.90;99.90;;;;;;5051944;28;20515;-90
2024/03/17 08:54:46;;;;;;;10.53;9.53;;;14.90;99.90;;;;;;5052881;28;20228;-90
2024/03/17 08:57:12;;;;;;;10.13;9.25;;;15.20;99.80;;;;;;5051280;28;20198;-90
2024/03/17 08:59:38;;;;;;;9.53;8.63;;;14.60;99.20;;;;;;5053406;28;20190;-89
2024/03/17 09:02:03;;;;;;;11.00;9.67;;;15.30;99.90;;;;;;5036014;28;20192;-89
2024/03/17 09:04:30;;;;;;;9.70;8.80;;;15.10;99.90;;;;;;5053660;28;20213;-89
2024/03/17 09:06:56;;;;;;;10.45;9.45;;;15.10;99.80;;;;;;5049385;28;20270;-88
2024/03/17 09:09:22;;;;;;;9.70;8.90;;;15.70;99.90;;;;;;5051184;28;20280;-88
2024/03/17 09:11:48;;;;;;;9.40;8.45;;;15.50;99.60;;;;;;5053072;28;20441;-89
2024/03/17 09:14:13;;;;;;;8.60;7.80;;;16.30;99.30;;;;;;5055968;28;20674;-88
2024/03/17 09:16:39;;;;;;;8.47;7.77;;;15.90;98.00;;;;;;5055527;28;20196;-89
2024/03/17 09:19:04;;;;;;;8.80;7.90;;;16.30;97.30;;;;;;5052506;28;20179;-88
2024/03/17 09:21:30;;;;;;;7.50;6.80;;;17.10;96.70;;;;;;5053724;28;20635;-88
2024/03/17 09:23:55;;;;;;;8.20;7.40;;;16.90;96.30;;;;;;5051411;28;20830;-88
2024/03/17 09:26:21;;;;;;;7.73;6.93;;;16.70;96.10;;;;;;5052316;28;20210;-88
2024/03/17 09:28:46;;;;;;;8.83;7.23;;;16.60;95.90;;;;;;5048672;28;20246;-89
2024/03/17 09:31:12;;;;;;;8.77;7.97;;;17.10;96.00;;;;;;5048200;28;20228;-87
2024/03/17 09:33:38;;;;;;;7.47;6.77;;;17.10;95.80;;;;;;5048863;28;20761;-89
2024/03/17 09:36:08;;;;;;;7.50;6.80;;;16.60;96.10;;;;;;5051201;28;20452;-90
2024/03/17 09:38:34;;;;;;;7.20;6.60;;;16.50;95.70;;;;;;5049227;28;20951;-89
2024/03/17 09:41:00;;;;;;;6.53;6.03;;;16.60;95.30;;;;;;5047114;28;20341;-89
2024/03/17 09:43:34;;;;;;;6.68;6.03;;;16.60;95.60;;;;;;5051152;28;20181;-88
2024/03/17 09:46:02;;;;;;;6.90;6.28;;;16.70;95.20;;;;;;5049814;28;20209;-89
2024/03/17 09:48:28;;;;;;;5.95;5.35;;;17.00;94.80;;;;;;5056258;28;20320;-89
2024/03/17 09:50:56;;;;;;;7.05;6.45;;;17.30;94.60;;;;;;5068203;28;20177;-87
2024/03/17 09:53:27;;;;;;;6.63;6.03;;;17.30;93.70;;;;;;5051668;28;20701;-88
2024/03/17 09:55:57;;;;;;;6.97;6.32;;;17.20;93.30;;;;;;5050014;28;20201;-88
2024/03/17 09:58:23;;;;;;;5.97;5.38;;;16.50;93.10;;;;;;5053197;28;20272;-87
2024/03/17 10:00:48;;;;;;;6.57;5.40;;;16.50;93.30;;;;;;5056785;28;20285;-86
2024/03/17 10:03:44;;;;;;;5.57;5.07;;;16.90;93.90;;;;;;5052726;28;20301;-87
2024/03/17 10:06:14;;;;;;;6.60;5.70;;;16.40;93.60;;;;;;5067227;28;20208;-87
2024/03/17 10:08:46;;;;;;;5.38;4.82;;;17.30;93.80;;;;;;5043816;28;20178;-87
2024/03/17 10:11:13;;;;;;;5.85;5.35;;;17.30;91.50;;;;;;5043914;28;20185;-86
2024/03/17 10:13:40;;;;;;;6.13;4.97;;;17.40;90.30;;;;;;5060426;28;20303;-89
2024/03/17 10:16:05;;;;;;;5.75;5.15;;;18.10;90.50;;;;;;5059751;28;20235;-88
2024/03/17 10:18:31;;;;;;;5.70;4.30;;;17.30;90.50;;;;;;5054404;28;20217;-89
2024/03/17 10:20:58;;;;;;;5.50;4.73;;;17.50;90.70;;;;;;5069247;28;20276;-88
2024/03/17 10:23:24;;;;;;;4.93;4.40;;;17.20;90.60;;;;;;5049491;28;20203;-88
2024/03/17 10:25:49;;;;;;;4.60;4.20;;;16.60;90.50;;;;;;5049511;28;20209;-86
2024/03/17 10:28:18;;;;;;;4.47;4.17;;;16.50;90.90;;;;;;5048812;28;20255;-87
2024/03/17 10:31:00;;;;;;;4.10;3.70;;;16.00;90.30;;;;;;5046653;28;20189;-86
2024/03/17 10:33:27;;;;;;;4.50;4.03;;;15.90;90.30;;;;;;5043409;28;20189;-87
2024/03/17 10:36:00;;;;;;;4.22;3.70;;;16.50;90.40;;;;;;5049954;28;20288;-86
2024/03/17 10:38:29;;;;;;;3.78;3.35;;;16.80;90.00;;;;;;5032165;28;20599;-89
2024/03/17 10:40:57;;;;;;;3.80;3.50;;;17.40;87.20;;;;;;5052030;28;20177;-88
2024/03/17 10:43:25;;;;;;;3.60;3.30;;;17.10;87.30;;;;;;5051250;28;20195;-88
2024/03/17 10:45:54;;;;;;;4.45;4.15;;;17.40;86.30;;;;;;5044890;28;20206;-88
2024/03/17 10:48:21;;;;;;;3.30;3.00;;;17.20;85.70;;;;;;5052579;28;20403;-87
2024/03/17 10:50:49;;;;;;;3.70;3.40;;;17.90;85.10;;;;;;5059000;28;20221;-87
2024/03/17 10:53:20;;;;;;;3.20;3.00;;;18.50;83.40;;;;;;5049932;28;20193;-87
2024/03/17 10:55:47;;;;;;;3.50;3.20;;;18.30;82.70;;;;;;5063866;28;20277;-88
2024/03/17 10:58:52;;;;;;;3.60;3.20;;;17.90;82.90;;;;;;5068709;28;20184;-88
2024/03/17 11:01:19;;;;;;;6.00;3.60;;;17.80;82.60;;;;;;5039462;28;20248;-88
2024/03/17 11:03:47;;;;;;;4.07;3.50;;;19.40;81.10;;;;;;5051499;28;20190;-88
2024/03/17 11:06:13;;;;;;;3.67;3.30;;;19.90;76.80;;;;;;5070630;28;20235;-86
2024/03/17 11:08:42;;;;;;;4.70;3.80;;;19.90;74.40;;;;;;5061054;28;20209;-86
2024/03/17 11:11:08;;;;;;;4.15;3.83;;;19.80;74.50;;;;;;5061198;28;20189;-86
2024/03/17 11:13:36;;;;;;;5.10;4.60;;;19.80;77.20;;;;;;5059248;28;20292;-85
2024/03/17 11:16:04;;;;;;;4.68;4.28;;;19.10;78.20;;;;;;5064960;28;20205;-85
2024/03/17 11:18:34;;;;;;;4.68;4.28;;;18.50;79.60;;;;;;5058501;28;20184;-85
2024/03/17 11:21:10;;;;;;;4.00;3.70;;;18.40;79.00;;;;;;5057115;28;20182;-87
2024/03/17 11:23:37;;;;;;;4.25;3.83;;;18.10;78.80;;;;;;5056651;28;20193;-87
2024/03/17 11:26:03;;;;;;;3.55;3.08;;;17.90;79.40;;;;;;5061824;28;20238;-87
2024/03/17 11:28:44;;;;;;;3.63;3.10;;;18.20;81.00;;;;;;5059745;28;20216;-87
2024/03/17 11:31:35;;;;;;;3.53;3.22;;;17.90;78.70;;;;;;5060017;28;20177;-86
2024/03/17 11:34:03;;;;;;;3.58;3.25;;;18.20;79.10;;;;;;5049907;28;20209;-85
2024/03/17 11:36:28;;;;;;;3.20;2.90;;;18.40;80.00;;;;;;5059970;28;20217;-85
2024/03/17 11:38:57;;;;;;;3.30;2.63;;;18.50;80.10;;;;;;5054203;28;20198;-86
2024/03/17 11:41:42;;;;;;;4.18;2.38;;;18.30;77.60;;;;;;5068791;28;20189;-86
2024/03/17 11:44:25;;;;;;;6.97;2.67;;;18.00;75.80;;;;;;5051579;28;20184;-86
2024/03/17 11:47:05;;;;;;;2.70;2.22;;;18.50;75.80;;;;;;5049805;28;20741;-88
2024/03/17 11:49:31;;;;;;;2.45;2.22;;;18.70;77.00;;;;;;5054384;28;20642;-85
2024/03/17 11:51:59;;;;;;;2.55;2.30;;;18.80;75.90;;;;;;5061766;28;20591;-84
2024/03/17 11:54:29;;;;;;;2.90;2.60;;;18.90;75.90;;;;;;5054741;28;20280;-85
2024/03/17 11:57:00;;;;;;;4.25;3.90;;;18.50;77.80;;;;;;5057054;28;20272;-85
2024/03/17 11:59:25;;;;;;;4.10;3.75;;;18.60;80.20;;;;;;5053856;28;20188;-84
2024/03/17 12:01:51;;;;;;;3.67;3.37;;;18.60;80.70;;;;;;5053146;28;20186;-86
2024/03/17 12:04:23;;;;;;;4.20;3.80;;;18.30;80.70;;;;;;5056898;28;20192;-85
2024/03/17 12:06:55;;;;;;;4.68;3.70;;;18.30;80.90;;;;;;5070080;28;20248;-86
2024/03/17 12:09:22;;;;;;;4.00;3.60;;;17.90;83.20;;;;;;5063926;28;20182;-86
2024/03/17 12:11:50;;;;;;;4.70;4.30;;;17.90;85.60;;;;;;5073288;28;20200;-85
2024/03/17 12:14:19;;;;;;;4.82;4.43;;;17.40;85.80;;;;;;5068161;28;20208;-84
2024/03/17 12:16:52;;;;;;;5.30;3.95;;;17.70;86.80;;;;;;5042746;28;20202;-86
2024/03/17 12:19:19;;;;;;;5.40;4.90;;;17.80;87.70;;;;;;5064086;28;20227;-85
2024/03/17 12:21:47;;;;;;;4.80;4.40;;;17.60;86.90;;;;;;5063209;28;20260;-85
2024/03/17 12:24:18;;;;;;;5.28;4.10;;;17.40;87.70;;;;;;5060361;28;20177;-85
2024/03/17 12:26:45;;;;;;;4.65;4.25;;;17.00;88.10;;;;;;5068450;28;20232;-85
2024/03/17 12:29:35;;;;;;;4.78;4.05;;;17.10;87.50;;;;;;5080615;28;20188;-85
2024/03/17 12:32:03;;;;;;;4.10;3.80;;;16.80;86.80;;;;;;5073875;28;20196;-87
2024/03/17 12:34:31;;;;;;;5.20;4.70;;;17.10;87.40;;;;;;5057924;28;20205;-86
2024/03/17 12:36:58;;;;;;;5.90;4.63;;;17.20;88.00;;;;;;5061829;28;20198;-87
2024/03/17 12:39:26;;;;;;;4.80;4.40;;;16.70;89.10;;;;;;5063289;28;20260;-86
2024/03/17 12:42:04;;;;;;;4.38;3.85;;;17.00;88.30;;;;;;5060814;28;20196;-86
2024/03/17 12:44:31;;;;;;;4.82;4.13;;;16.60;88.30;;;;;;5060690;28;20185;-86
2024/03/17 12:47:01;;;;;;;4.78;4.38;;;17.30;89.60;;;;;;5060875;28;20205;-86
2024/03/17 12:49:28;;;;;;;4.30;3.90;;;17.30;88.70;;;;;;5061374;28;20190;-86
2024/03/17 12:51:54;;;;;;;4.90;3.90;;;17.60;87.70;;;;;;5061064;28;20189;-87